sensor_id;sensor_type;location;lat;lon;timestamp;P1;durP1;ratioP1;P2;durP2;ratioP2
54679;SDS011;40578;53.178;5.846;2023-05-10T00:01:22;13.18;;;11.73;;
54679;SDS011;40578;53.178;5.846;2023-05-10T00:03:48;14.60;;;11.77;;
54679;SDS011;40578;53.178;5.846;2023-05-10T00:06:14;14.50;;;12.60;;
54679;SDS011;40578;53.178;5.846;2023-05-10T00:08:40;14.77;;;13.07;;
54679;SDS011;40578;53.178;5.846;2023-05-10T00:11:05;15.40;;;13.13;;
54679;SDS011;40578;53.178;5.846;2023-05-10T00:13:31;14.73;;;11.97;;
54679;SDS011;40578;53.178;5.846;2023-05-10T00:15:57;14.00;;;12.05;;
54679;SDS011;40578;53.178;5.846;2023-05-10T00:18:23;15.10;;;12.17;;
54679;SDS011;40578;53.178;5.846;2023-05-10T00:20:48;12.60;;;11.07;;
54679;SDS011;40578;53.178;5.846;2023-05-10T00:23:14;10.60;;;9.30;;
54679;SDS011;40578;53.178;5.846;2023-05-10T00:25:40;8.37;;;7.50;;
54679;SDS011;40578;53.178;5.846;2023-05-10T00:28:05;8.60;;;6.70;;
54679;SDS011;40578;53.178;5.846;2023-05-10T00:30:31;7.03;;;5.97;;
54679;SDS011;40578;53.178;5.846;2023-05-10T00:32:57;5.93;;;5.23;;
54679;SDS011;40578;53.178;5.846;2023-05-10T00:35:22;6.47;;;5.70;;
54679;SDS011;40578;53.178;5.846;2023-05-10T00:37:48;7.30;;;6.13;;
54679;SDS011;40578;53.178;5.846;2023-05-10T00:40:14;7.47;;;6.67;;
54679;SDS011;40578;53.178;5.846;2023-05-10T00:42:39;8.03;;;6.97;;
54679;SDS011;40578;53.178;5.846;2023-05-10T00:45:05;7.57;;;6.87;;
54679;SDS011;40578;53.178;5.846;2023-05-10T00:47:31;9.30;;;8.13;;
54679;SDS011;40578;53.178;5.846;2023-05-10T00:49:58;10.25;;;9.20;;
54679;SDS011;40578;53.178;5.846;2023-05-10T00:52:25;11.85;;;9.27;;
54679;SDS011;40578;53.178;5.846;2023-05-10T00:54:55;11.90;;;9.88;;
54679;SDS011;40578;53.178;5.846;2023-05-10T00:57:21;14.43;;;11.35;;
54679;SDS011;40578;53.178;5.846;2023-05-10T00:59:47;15.15;;;12.07;;
54679;SDS011;40578;53.178;5.846;2023-05-10T01:02:13;19.53;;;13.03;;
54679;SDS011;40578;53.178;5.846;2023-05-10T01:04:39;22.53;;;14.57;;
54679;SDS011;40578;53.178;5.846;2023-05-10T01:07:05;21.77;;;15.98;;
54679;SDS011;40578;53.178;5.846;2023-05-10T01:09:31;23.47;;;16.60;;
54679;SDS011;40578;53.178;5.846;2023-05-10T01:11:57;27.50;;;17.75;;
54679;SDS011;40578;53.178;5.846;2023-05-10T01:14:25;28.40;;;19.08;;
54679;SDS011;40578;53.178;5.846;2023-05-10T01:16:52;26.75;;;18.85;;
54679;SDS011;40578;53.178;5.846;2023-05-10T01:19:19;28.95;;;19.52;;
54679;SDS011;40578;53.178;5.846;2023-05-10T01:21:54;33.05;;;19.77;;
54679;SDS011;40578;53.178;5.846;2023-05-10T01:33:01;29.40;;;20.13;;
54679;SDS011;40578;53.178;5.846;2023-05-10T01:43:37;32.03;;;21.00;;
54679;SDS011;40578;53.178;5.846;2023-05-10T01:46:16;32.00;;;20.20;;
54679;SDS011;40578;53.178;5.846;2023-05-10T01:48:51;34.75;;;22.08;;
54679;SDS011;40578;53.178;5.846;2023-05-10T01:51:24;38.55;;;22.30;;
54679;SDS011;40578;53.178;5.846;2023-05-10T01:53:54;40.25;;;22.52;;
54679;SDS011;40578;53.178;5.846;2023-05-10T01:56:25;40.85;;;23.90;;
54679;SDS011;40578;53.178;5.846;2023-05-10T01:58:55;40.28;;;24.05;;
54679;SDS011;40578;53.178;5.846;2023-05-10T02:01:21;47.08;;;24.35;;
54679;SDS011;40578;53.178;5.846;2023-05-10T02:03:48;41.45;;;22.95;;
54679;SDS011;40578;53.178;5.846;2023-05-10T02:06:16;41.70;;;24.33;;
54679;SDS011;40578;53.178;5.846;2023-05-10T02:08:45;38.53;;;22.80;;
54679;SDS011;40578;53.178;5.846;2023-05-10T02:11:12;31.48;;;21.58;;
54679;SDS011;40578;53.178;5.846;2023-05-10T02:13:39;37.72;;;23.67;;
54679;SDS011;40578;53.178;5.846;2023-05-10T02:16:06;36.95;;;24.30;;
54679;SDS011;40578;53.178;5.846;2023-05-10T02:18:33;39.10;;;23.83;;
54679;SDS011;40578;53.178;5.846;2023-05-10T02:20:59;34.97;;;22.92;;
54679;SDS011;40578;53.178;5.846;2023-05-10T02:23:27;34.05;;;22.33;;
54679;SDS011;40578;53.178;5.846;2023-05-10T02:25:53;36.80;;;22.10;;
54679;SDS011;40578;53.178;5.846;2023-05-10T02:28:21;40.33;;;22.60;;
54679;SDS011;40578;53.178;5.846;2023-05-10T02:30:48;31.65;;;19.65;;
54679;SDS011;40578;53.178;5.846;2023-05-10T02:33:14;31.93;;;19.63;;
54679;SDS011;40578;53.178;5.846;2023-05-10T02:35:40;29.02;;;17.67;;
54679;SDS011;40578;53.178;5.846;2023-05-10T02:38:06;25.87;;;16.63;;
54679;SDS011;40578;53.178;5.846;2023-05-10T02:40:33;24.48;;;16.83;;
54679;SDS011;40578;53.178;5.846;2023-05-10T02:43:01;20.13;;;15.00;;
54679;SDS011;40578;53.178;5.846;2023-05-10T02:45:30;13.82;;;11.30;;
54679;SDS011;40578;53.178;5.846;2023-05-10T02:47:57;11.57;;;9.85;;
54679;SDS011;40578;53.178;5.846;2023-05-10T02:50:25;8.00;;;6.97;;
54679;SDS011;40578;53.178;5.846;2023-05-10T02:52:54;7.75;;;5.80;;
54679;SDS011;40578;53.178;5.846;2023-05-10T02:55:25;6.68;;;5.68;;
54679;SDS011;40578;53.178;5.846;2023-05-10T02:57:58;5.07;;;4.57;;
54679;SDS011;40578;53.178;5.846;2023-05-10T03:00:25;4.10;;;3.50;;
54679;SDS011;40578;53.178;5.846;2023-05-10T03:02:52;4.57;;;3.93;;
54679;SDS011;40578;53.178;5.846;2023-05-10T03:05:18;3.70;;;3.30;;
54679;SDS011;40578;53.178;5.846;2023-05-10T03:07:44;3.47;;;2.55;;
54679;SDS011;40578;53.178;5.846;2023-05-10T03:10:11;3.83;;;3.08;;
54679;SDS011;40578;53.178;5.846;2023-05-10T03:15:12;3.60;;;3.17;;
54679;SDS011;40578;53.178;5.846;2023-05-10T03:20:26;3.20;;;2.50;;
54679;SDS011;40578;53.178;5.846;2023-05-10T03:23:00;2.95;;;2.22;;
54679;SDS011;40578;53.178;5.846;2023-05-10T03:25:31;3.42;;;2.92;;
54679;SDS011;40578;53.178;5.846;2023-05-10T03:27:57;3.75;;;3.17;;
54679;SDS011;40578;53.178;5.846;2023-05-10T03:30:24;3.67;;;2.83;;
54679;SDS011;40578;53.178;5.846;2023-05-10T03:32:51;3.38;;;2.85;;
54679;SDS011;40578;53.178;5.846;2023-05-10T03:35:16;3.60;;;3.10;;
54679;SDS011;40578;53.178;5.846;2023-05-10T03:37:42;3.60;;;3.00;;
54679;SDS011;40578;53.178;5.846;2023-05-10T03:40:08;3.37;;;3.07;;
54679;SDS011;40578;53.178;5.846;2023-05-10T03:42:34;4.68;;;2.95;;
54679;SDS011;40578;53.178;5.846;2023-05-10T03:45:00;3.73;;;2.90;;
54679;SDS011;40578;53.178;5.846;2023-05-10T03:47:26;4.87;;;3.03;;
54679;SDS011;40578;53.178;5.846;2023-05-10T03:49:51;3.60;;;3.10;;
54679;SDS011;40578;53.178;5.846;2023-05-10T03:52:17;3.87;;;3.40;;
54679;SDS011;40578;53.178;5.846;2023-05-10T03:54:43;4.60;;;3.63;;
54679;SDS011;40578;53.178;5.846;2023-05-10T03:57:08;5.00;;;3.27;;
54679;SDS011;40578;53.178;5.846;2023-05-10T03:59:34;3.73;;;3.07;;
54679;SDS011;40578;53.178;5.846;2023-05-10T04:02:00;2.80;;;2.40;;
54679;SDS011;40578;53.178;5.846;2023-05-10T04:04:26;2.93;;;2.50;;
54679;SDS011;40578;53.178;5.846;2023-05-10T04:06:51;2.93;;;2.27;;
54679;SDS011;40578;53.178;5.846;2023-05-10T04:09:17;2.60;;;2.20;;
54679;SDS011;40578;53.178;5.846;2023-05-10T04:11:42;2.83;;;2.40;;
54679;SDS011;40578;53.178;5.846;2023-05-10T04:14:08;2.40;;;2.00;;
54679;SDS011;40578;53.178;5.846;2023-05-10T04:16:34;3.20;;;2.53;;
54679;SDS011;40578;53.178;5.846;2023-05-10T04:19:00;3.13;;;2.50;;
54679;SDS011;40578;53.178;5.846;2023-05-10T04:21:25;3.23;;;2.53;;
54679;SDS011;40578;53.178;5.846;2023-05-10T04:23:51;4.30;;;2.90;;
54679;SDS011;40578;53.178;5.846;2023-05-10T04:26:16;4.23;;;2.97;;
54679;SDS011;40578;53.178;5.846;2023-05-10T04:28:42;4.57;;;3.03;;
54679;SDS011;40578;53.178;5.846;2023-05-10T04:31:08;5.30;;;2.97;;
54679;SDS011;40578;53.178;5.846;2023-05-10T04:36:01;3.72;;;3.00;;
54679;SDS011;40578;53.178;5.846;2023-05-10T04:38:27;3.85;;;2.92;;
54679;SDS011;40578;53.178;5.846;2023-05-10T04:40:53;3.57;;;2.77;;
54679;SDS011;40578;53.178;5.846;2023-05-10T04:43:19;3.63;;;2.80;;
54679;SDS011;40578;53.178;5.846;2023-05-10T04:45:45;4.67;;;3.10;;
54679;SDS011;40578;53.178;5.846;2023-05-10T04:48:11;3.80;;;2.43;;
54679;SDS011;40578;53.178;5.846;2023-05-10T04:50:36;3.90;;;3.20;;
54679;SDS011;40578;53.178;5.846;2023-05-10T04:53:02;5.67;;;3.97;;
54679;SDS011;40578;53.178;5.846;2023-05-10T04:55:28;4.47;;;3.70;;
54679;SDS011;40578;53.178;5.846;2023-05-10T04:57:53;5.70;;;4.23;;
54679;SDS011;40578;53.178;5.846;2023-05-10T05:00:21;6.72;;;4.35;;
54679;SDS011;40578;53.178;5.846;2023-05-10T05:02:47;8.45;;;5.45;;
54679;SDS011;40578;53.178;5.846;2023-05-10T05:05:14;7.57;;;5.80;;
54679;SDS011;40578;53.178;5.846;2023-05-10T05:07:40;6.97;;;5.72;;
54679;SDS011;40578;53.178;5.846;2023-05-10T05:10:06;10.50;;;7.27;;
54679;SDS011;40578;53.178;5.846;2023-05-10T05:12:33;10.05;;;8.10;;
54679;SDS011;40578;53.178;5.846;2023-05-10T05:14:59;13.25;;;8.05;;
54679;SDS011;40578;53.178;5.846;2023-05-10T05:17:25;12.33;;;8.97;;
54679;SDS011;40578;53.178;5.846;2023-05-10T05:19:50;12.30;;;9.00;;
54679;SDS011;40578;53.178;5.846;2023-05-10T05:22:16;12.33;;;9.00;;
54679;SDS011;40578;53.178;5.846;2023-05-10T05:24:42;13.37;;;9.87;;
54679;SDS011;40578;53.178;5.846;2023-05-10T05:27:07;12.10;;;8.73;;
54679;SDS011;40578;53.178;5.846;2023-05-10T05:29:33;9.93;;;7.40;;
54679;SDS011;40578;53.178;5.846;2023-05-10T05:31:59;8.77;;;6.47;;
54679;SDS011;40578;53.178;5.846;2023-05-10T05:34:24;10.33;;;6.40;;
54679;SDS011;40578;53.178;5.846;2023-05-10T05:36:50;8.98;;;6.10;;
54679;SDS011;40578;53.178;5.846;2023-05-10T05:39:16;10.77;;;6.17;;
54679;SDS011;40578;53.178;5.846;2023-05-10T05:41:42;8.33;;;5.57;;
54679;SDS011;40578;53.178;5.846;2023-05-10T05:44:08;6.50;;;5.40;;
54679;SDS011;40578;53.178;5.846;2023-05-10T05:46:34;7.43;;;5.77;;
54679;SDS011;40578;53.178;5.846;2023-05-10T05:48:59;8.17;;;5.57;;
54679;SDS011;40578;53.178;5.846;2023-05-10T05:51:25;7.20;;;5.17;;
54679;SDS011;40578;53.178;5.846;2023-05-10T05:53:50;8.70;;;4.83;;
54679;SDS011;40578;53.178;5.846;2023-05-10T05:56:16;5.57;;;3.87;;
54679;SDS011;40578;53.178;5.846;2023-05-10T05:58:48;10.13;;;3.95;;
54679;SDS011;40578;53.178;5.846;2023-05-10T06:01:17;7.13;;;4.20;;
54679;SDS011;40578;53.178;5.846;2023-05-10T06:03:43;6.07;;;4.17;;
54679;SDS011;40578;53.178;5.846;2023-05-10T06:06:08;6.40;;;4.50;;
54679;SDS011;40578;53.178;5.846;2023-05-10T06:08:34;6.40;;;4.60;;
54679;SDS011;40578;53.178;5.846;2023-05-10T06:11:00;6.30;;;3.60;;
54679;SDS011;40578;53.178;5.846;2023-05-10T06:13:26;4.60;;;2.75;;
54679;SDS011;40578;53.178;5.846;2023-05-10T06:15:57;3.92;;;2.58;;
54679;SDS011;40578;53.178;5.846;2023-05-10T06:18:23;3.75;;;2.53;;
54679;SDS011;40578;53.178;5.846;2023-05-10T06:20:49;5.13;;;2.73;;
54679;SDS011;40578;53.178;5.846;2023-05-10T06:23:15;5.50;;;3.13;;
54679;SDS011;40578;53.178;5.846;2023-05-10T06:25:41;5.07;;;3.73;;
54679;SDS011;40578;53.178;5.846;2023-05-10T06:28:06;8.77;;;3.97;;
54679;SDS011;40578;53.178;5.846;2023-05-10T06:30:32;6.63;;;4.53;;
54679;SDS011;40578;53.178;5.846;2023-05-10T06:32:58;7.20;;;4.90;;
54679;SDS011;40578;53.178;5.846;2023-05-10T06:35:23;7.50;;;5.20;;
54679;SDS011;40578;53.178;5.846;2023-05-10T06:37:49;10.13;;;5.40;;
54679;SDS011;40578;53.178;5.846;2023-05-10T06:40:15;8.02;;;4.90;;
54679;SDS011;40578;53.178;5.846;2023-05-10T06:42:41;7.53;;;4.83;;
54679;SDS011;40578;53.178;5.846;2023-05-10T06:45:07;12.00;;;5.13;;
54679;SDS011;40578;53.178;5.846;2023-05-10T06:49:59;8.27;;;4.68;;
54679;SDS011;40578;53.178;5.846;2023-05-10T06:52:25;9.80;;;4.30;;
54679;SDS011;40578;53.178;5.846;2023-05-10T06:54:51;11.27;;;4.90;;
54679;SDS011;40578;53.178;5.846;2023-05-10T06:57:16;8.50;;;3.67;;
54679;SDS011;40578;53.178;5.846;2023-05-10T06:59:42;6.70;;;4.03;;
54679;SDS011;40578;53.178;5.846;2023-05-10T07:02:08;7.77;;;4.73;;
54679;SDS011;40578;53.178;5.846;2023-05-10T07:04:34;10.57;;;6.00;;
54679;SDS011;40578;53.178;5.846;2023-05-10T07:06:59;11.93;;;6.70;;
54679;SDS011;40578;53.178;5.846;2023-05-10T07:09:25;13.73;;;7.10;;
54679;SDS011;40578;53.178;5.846;2023-05-10T07:11:50;12.97;;;7.07;;
54679;SDS011;40578;53.178;5.846;2023-05-10T07:14:16;10.67;;;6.50;;
54679;SDS011;40578;53.178;5.846;2023-05-10T07:16:42;12.73;;;7.40;;
54679;SDS011;40578;53.178;5.846;2023-05-10T07:19:07;10.93;;;6.50;;
54679;SDS011;40578;53.178;5.846;2023-05-10T07:21:33;16.80;;;7.50;;
54679;SDS011;40578;53.178;5.846;2023-05-10T07:23:59;12.30;;;6.97;;
54679;SDS011;40578;53.178;5.846;2023-05-10T07:26:25;14.30;;;7.25;;
54679;SDS011;40578;53.178;5.846;2023-05-10T07:28:51;12.90;;;6.07;;
54679;SDS011;40578;53.178;5.846;2023-05-10T07:31:17;13.93;;;7.37;;
54679;SDS011;40578;53.178;5.846;2023-05-10T07:33:42;13.17;;;6.23;;
54679;SDS011;40578;53.178;5.846;2023-05-10T07:36:08;12.07;;;6.43;;
54679;SDS011;40578;53.178;5.846;2023-05-10T07:38:34;11.37;;;6.07;;
54679;SDS011;40578;53.178;5.846;2023-05-10T07:40:59;13.27;;;6.73;;
54679;SDS011;40578;53.178;5.846;2023-05-10T07:43:25;11.33;;;6.47;;
54679;SDS011;40578;53.178;5.846;2023-05-10T07:45:50;9.97;;;6.80;;
54679;SDS011;40578;53.178;5.846;2023-05-10T07:48:16;10.73;;;6.47;;
54679;SDS011;40578;53.178;5.846;2023-05-10T07:50:42;10.87;;;6.77;;
54679;SDS011;40578;53.178;5.846;2023-05-10T07:53:07;12.27;;;6.83;;
54679;SDS011;40578;53.178;5.846;2023-05-10T07:55:33;9.33;;;6.60;;
54679;SDS011;40578;53.178;5.846;2023-05-10T07:57:58;9.97;;;6.77;;
54679;SDS011;40578;53.178;5.846;2023-05-10T08:00:26;11.07;;;6.45;;
54679;SDS011;40578;53.178;5.846;2023-05-10T08:02:51;13.93;;;6.73;;
54679;SDS011;40578;53.178;5.846;2023-05-10T08:05:17;9.77;;;6.53;;
54679;SDS011;40578;53.178;5.846;2023-05-10T08:07:43;11.67;;;7.60;;
54679;SDS011;40578;53.178;5.846;2023-05-10T08:10:09;12.60;;;7.73;;
54679;SDS011;40578;53.178;5.846;2023-05-10T08:12:38;14.88;;;7.63;;
54679;SDS011;40578;53.178;5.846;2023-05-10T08:15:04;14.87;;;7.33;;
54679;SDS011;40578;53.178;5.846;2023-05-10T08:17:31;11.75;;;6.82;;
54679;SDS011;40578;53.178;5.846;2023-05-10T08:19:57;11.40;;;6.77;;
54679;SDS011;40578;53.178;5.846;2023-05-10T08:22:23;17.07;;;7.40;;
54679;SDS011;40578;53.178;5.846;2023-05-10T08:24:48;12.37;;;7.97;;
54679;SDS011;40578;53.178;5.846;2023-05-10T08:27:14;10.70;;;7.43;;
54679;SDS011;40578;53.178;5.846;2023-05-10T08:29:39;11.23;;;7.03;;
54679;SDS011;40578;53.178;5.846;2023-05-10T08:32:05;11.50;;;7.47;;
54679;SDS011;40578;53.178;5.846;2023-05-10T08:34:31;15.30;;;7.10;;
54679;SDS011;40578;53.178;5.846;2023-05-10T08:36:56;10.80;;;7.30;;
54679;SDS011;40578;53.178;5.846;2023-05-10T08:39:22;11.30;;;6.90;;
54679;SDS011;40578;53.178;5.846;2023-05-10T08:41:48;10.07;;;6.63;;
54679;SDS011;40578;53.178;5.846;2023-05-10T08:44:19;11.57;;;7.60;;
54679;SDS011;40578;53.178;5.846;2023-05-10T08:46:45;11.13;;;7.50;;
54679;SDS011;40578;53.178;5.846;2023-05-10T08:49:13;11.90;;;7.13;;
54679;SDS011;40578;53.178;5.846;2023-05-10T08:51:44;14.43;;;7.20;;
54679;SDS011;40578;53.178;5.846;2023-05-10T08:54:16;12.88;;;7.72;;
54679;SDS011;40578;53.178;5.846;2023-05-10T08:56:42;13.27;;;8.67;;
54679;SDS011;40578;53.178;5.846;2023-05-10T08:59:08;12.27;;;8.00;;
54679;SDS011;40578;53.178;5.846;2023-05-10T09:01:33;13.27;;;8.27;;
54679;SDS011;40578;53.178;5.846;2023-05-10T09:04:01;12.02;;;7.63;;
54679;SDS011;40578;53.178;5.846;2023-05-10T09:06:27;15.38;;;9.43;;
54679;SDS011;40578;53.178;5.846;2023-05-10T09:08:53;14.73;;;8.83;;
54679;SDS011;40578;53.178;5.846;2023-05-10T09:11:22;14.32;;;9.82;;
54679;SDS011;40578;53.178;5.846;2023-05-10T09:13:49;15.43;;;9.65;;
54679;SDS011;40578;53.178;5.846;2023-05-10T09:16:17;16.08;;;10.23;;
54679;SDS011;40578;53.178;5.846;2023-05-10T09:18:43;14.87;;;9.87;;
54679;SDS011;40578;53.178;5.846;2023-05-10T09:21:08;14.60;;;9.30;;
54679;SDS011;40578;53.178;5.846;2023-05-10T09:23:35;13.98;;;9.32;;
54679;SDS011;40578;53.178;5.846;2023-05-10T09:26:05;12.13;;;8.45;;
54679;SDS011;40578;53.178;5.846;2023-05-10T09:28:34;12.95;;;7.95;;
54679;SDS011;40578;53.178;5.846;2023-05-10T09:31:14;13.25;;;8.30;;
54679;SDS011;40578;53.178;5.846;2023-05-10T09:33:43;10.63;;;7.67;;
54679;SDS011;40578;53.178;5.846;2023-05-10T09:36:13;11.07;;;7.78;;
54679;SDS011;40578;53.178;5.846;2023-05-10T09:38:48;11.82;;;7.95;;
54679;SDS011;40578;53.178;5.846;2023-05-10T09:41:23;12.85;;;7.57;;
54679;SDS011;40578;53.178;5.846;2023-05-10T09:43:50;11.57;;;7.65;;
54679;SDS011;40578;53.178;5.846;2023-05-10T09:46:20;12.43;;;7.72;;
54679;SDS011;40578;53.178;5.846;2023-05-10T09:48:47;9.43;;;7.28;;
54679;SDS011;40578;53.178;5.846;2023-05-10T09:51:20;10.85;;;7.63;;
54679;SDS011;40578;53.178;5.846;2023-05-10T09:53:47;13.18;;;7.97;;
54679;SDS011;40578;53.178;5.846;2023-05-10T09:56:31;12.15;;;8.15;;
54679;SDS011;40578;53.178;5.846;2023-05-10T09:59:02;10.63;;;7.35;;
54679;SDS011;40578;53.178;5.846;2023-05-10T10:01:28;9.43;;;7.32;;
54679;SDS011;40578;53.178;5.846;2023-05-10T10:03:54;12.95;;;8.05;;
54679;SDS011;40578;53.178;5.846;2023-05-10T10:06:22;12.45;;;7.82;;
54679;SDS011;40578;53.178;5.846;2023-05-10T10:08:48;11.97;;;7.63;;
54679;SDS011;40578;53.178;5.846;2023-05-10T10:11:14;10.77;;;7.93;;
54679;SDS011;40578;53.178;5.846;2023-05-10T10:13:41;11.73;;;8.05;;
54679;SDS011;40578;53.178;5.846;2023-05-10T10:16:07;11.50;;;8.37;;
54679;SDS011;40578;53.178;5.846;2023-05-10T10:18:33;13.10;;;8.82;;
54679;SDS011;40578;53.178;5.846;2023-05-10T10:21:04;10.98;;;8.20;;
54679;SDS011;40578;53.178;5.846;2023-05-10T10:23:31;11.48;;;8.25;;
54679;SDS011;40578;53.178;5.846;2023-05-10T10:25:56;10.53;;;8.00;;
54679;SDS011;40578;53.178;5.846;2023-05-10T10:28:25;13.10;;;9.40;;
54679;SDS011;40578;53.178;5.846;2023-05-10T10:31:02;13.45;;;9.10;;
54679;SDS011;40578;53.178;5.846;2023-05-10T10:33:55;12.70;;;9.40;;
54679;SDS011;40578;53.178;5.846;2023-05-10T10:36:25;11.90;;;9.43;;
54679;SDS011;40578;53.178;5.846;2023-05-10T10:38:54;12.45;;;8.30;;
54679;SDS011;40578;53.178;5.846;2023-05-10T10:41:27;11.55;;;8.20;;
54679;SDS011;40578;53.178;5.846;2023-05-10T10:52:27;11.05;;;7.05;;
54679;SDS011;40578;53.178;5.846;2023-05-10T10:57:32;13.15;;;8.73;;
54679;SDS011;40578;53.178;5.846;2023-05-10T11:00:23;10.55;;;7.72;;
54679;SDS011;40578;53.178;5.846;2023-05-10T11:03:03;11.35;;;7.97;;
54679;SDS011;40578;53.178;5.846;2023-05-10T11:08:02;10.65;;;7.72;;
54679;SDS011;40578;53.178;5.846;2023-05-10T11:13:31;9.13;;;6.97;;
54679;SDS011;40578;53.178;5.846;2023-05-10T11:16:18;8.40;;;6.35;;
54679;SDS011;40578;53.178;5.846;2023-05-10T11:21:30;10.20;;;7.63;;
54679;SDS011;40578;53.178;5.846;2023-05-10T11:23:58;11.15;;;7.43;;
54679;SDS011;40578;53.178;5.846;2023-05-10T11:26:25;11.05;;;7.57;;
54679;SDS011;40578;53.178;5.846;2023-05-10T11:28:55;10.98;;;7.57;;
54679;SDS011;40578;53.178;5.846;2023-05-10T11:31:21;10.97;;;7.87;;
54679;SDS011;40578;53.178;5.846;2023-05-10T11:33:48;11.05;;;7.93;;
54679;SDS011;40578;53.178;5.846;2023-05-10T11:36:16;11.15;;;8.15;;
54679;SDS011;40578;53.178;5.846;2023-05-10T11:41:08;9.10;;;7.53;;
54679;SDS011;40578;53.178;5.846;2023-05-10T11:43:35;9.15;;;7.32;;
54679;SDS011;40578;53.178;5.846;2023-05-10T11:46:03;9.20;;;6.97;;
54679;SDS011;40578;53.178;5.846;2023-05-10T11:48:30;9.55;;;7.43;;
54679;SDS011;40578;53.178;5.846;2023-05-10T11:50:56;8.13;;;6.40;;
54679;SDS011;40578;53.178;5.846;2023-05-10T11:55:50;9.10;;;7.43;;
54679;SDS011;40578;53.178;5.846;2023-05-10T11:58:17;10.83;;;7.07;;
54679;SDS011;40578;53.178;5.846;2023-05-10T12:00:43;10.52;;;7.40;;
54679;SDS011;40578;53.178;5.846;2023-05-10T12:05:36;9.93;;;7.43;;
54679;SDS011;40578;53.178;5.846;2023-05-10T12:08:11;9.57;;;8.18;;
54679;SDS011;40578;53.178;5.846;2023-05-10T12:10:37;10.13;;;8.13;;
54679;SDS011;40578;53.178;5.846;2023-05-10T12:13:03;12.47;;;8.37;;
54679;SDS011;40578;53.178;5.846;2023-05-10T12:15:29;10.67;;;8.13;;
54679;SDS011;40578;53.178;5.846;2023-05-10T12:17:54;10.67;;;8.20;;
54679;SDS011;40578;53.178;5.846;2023-05-10T12:20:22;10.15;;;8.50;;
54679;SDS011;40578;53.178;5.846;2023-05-10T12:22:54;13.25;;;8.23;;
54679;SDS011;40578;53.178;5.846;2023-05-10T12:25:22;12.02;;;9.27;;
54679;SDS011;40578;53.178;5.846;2023-05-10T12:27:52;10.75;;;8.52;;
54679;SDS011;40578;53.178;5.846;2023-05-10T12:30:20;10.40;;;8.25;;
54679;SDS011;40578;53.178;5.846;2023-05-10T12:32:47;11.77;;;9.35;;
54679;SDS011;40578;53.178;5.846;2023-05-10T12:35:12;11.90;;;8.70;;
54679;SDS011;40578;53.178;5.846;2023-05-10T12:37:38;10.57;;;8.97;;
54679;SDS011;40578;53.178;5.846;2023-05-10T12:40:07;9.90;;;7.80;;
54679;SDS011;40578;53.178;5.846;2023-05-10T12:42:35;12.15;;;8.45;;
54679;SDS011;40578;53.178;5.846;2023-05-10T12:45:03;11.68;;;8.38;;
54679;SDS011;40578;53.178;5.846;2023-05-10T12:47:29;9.70;;;7.80;;
54679;SDS011;40578;53.178;5.846;2023-05-10T12:49:55;10.40;;;7.75;;
54679;SDS011;40578;53.178;5.846;2023-05-10T12:52:21;8.93;;;6.87;;
54679;SDS011;40578;53.178;5.846;2023-05-10T12:54:46;7.47;;;6.07;;
54679;SDS011;40578;53.178;5.846;2023-05-10T12:57:12;9.57;;;7.57;;
54679;SDS011;40578;53.178;5.846;2023-05-10T12:59:38;7.40;;;6.25;;
54679;SDS011;40578;53.178;5.846;2023-05-10T13:02:04;8.03;;;6.43;;
54679;SDS011;40578;53.178;5.846;2023-05-10T13:04:30;10.85;;;7.13;;
54679;SDS011;40578;53.178;5.846;2023-05-10T13:06:55;9.20;;;7.50;;
54679;SDS011;40578;53.178;5.846;2023-05-10T13:09:23;9.68;;;6.65;;
54679;SDS011;40578;53.178;5.846;2023-05-10T13:11:50;10.48;;;7.65;;
54679;SDS011;40578;53.178;5.846;2023-05-10T13:14:16;11.55;;;7.38;;
54679;SDS011;40578;53.178;5.846;2023-05-10T13:16:41;10.30;;;7.73;;
54679;SDS011;40578;53.178;5.846;2023-05-10T13:19:07;10.90;;;6.63;;
54679;SDS011;40578;53.178;5.846;2023-05-10T13:21:32;9.13;;;5.97;;
54679;SDS011;40578;53.178;5.846;2023-05-10T13:23:58;10.93;;;6.20;;
54679;SDS011;40578;53.178;5.846;2023-05-10T13:26:25;7.10;;;5.22;;
54679;SDS011;40578;53.178;5.846;2023-05-10T13:28:51;9.33;;;6.13;;
54679;SDS011;40578;53.178;5.846;2023-05-10T13:33:42;6.50;;;4.85;;
54679;SDS011;40578;53.178;5.846;2023-05-10T13:36:08;7.93;;;6.27;;
54679;SDS011;40578;53.178;5.846;2023-05-10T13:38:34;9.07;;;6.67;;
54679;SDS011;40578;53.178;5.846;2023-05-10T13:40:59;8.60;;;6.40;;
54679;SDS011;40578;53.178;5.846;2023-05-10T13:43:25;8.93;;;5.50;;
54679;SDS011;40578;53.178;5.846;2023-05-10T13:45:50;7.73;;;4.97;;
54679;SDS011;40578;53.178;5.846;2023-05-10T13:48:17;5.70;;;3.92;;
54679;SDS011;40578;53.178;5.846;2023-05-10T13:50:43;5.47;;;3.93;;
54679;SDS011;40578;53.178;5.846;2023-05-10T13:53:08;5.97;;;4.50;;
54679;SDS011;40578;53.178;5.846;2023-05-10T13:55:34;7.10;;;4.60;;
54679;SDS011;40578;53.178;5.846;2023-05-10T13:58:00;7.90;;;5.97;;
54679;SDS011;40578;53.178;5.846;2023-05-10T14:00:25;6.90;;;5.50;;
54679;SDS011;40578;53.178;5.846;2023-05-10T14:02:51;5.70;;;4.45;;
54679;SDS011;40578;53.178;5.846;2023-05-10T14:05:17;5.73;;;4.47;;
54679;SDS011;40578;53.178;5.846;2023-05-10T14:07:43;6.35;;;5.30;;
54679;SDS011;40578;53.178;5.846;2023-05-10T14:10:09;6.93;;;5.30;;
54679;SDS011;40578;53.178;5.846;2023-05-10T14:12:38;6.65;;;5.78;;
54679;SDS011;40578;53.178;5.846;2023-05-10T14:15:04;6.07;;;5.47;;
54679;SDS011;40578;53.178;5.846;2023-05-10T14:17:31;5.75;;;4.70;;
54679;SDS011;40578;53.178;5.846;2023-05-10T14:19:57;5.53;;;4.40;;
54679;SDS011;40578;53.178;5.846;2023-05-10T14:22:22;5.53;;;4.93;;
54679;SDS011;40578;53.178;5.846;2023-05-10T14:24:48;5.30;;;4.30;;
54679;SDS011;40578;53.178;5.846;2023-05-10T14:27:14;4.60;;;3.90;;
54679;SDS011;40578;53.178;5.846;2023-05-10T14:29:40;5.90;;;5.30;;
54679;SDS011;40578;53.178;5.846;2023-05-10T14:32:05;6.40;;;5.40;;
54679;SDS011;40578;53.178;5.846;2023-05-10T14:34:31;5.97;;;5.10;;
54679;SDS011;40578;53.178;5.846;2023-05-10T14:36:58;5.63;;;4.40;;
54679;SDS011;40578;53.178;5.846;2023-05-10T14:41:49;6.03;;;5.30;;
54679;SDS011;40578;53.178;5.846;2023-05-10T14:44:17;6.50;;;5.88;;
54679;SDS011;40578;53.178;5.846;2023-05-10T14:46:43;5.82;;;5.22;;
54679;SDS011;40578;53.178;5.846;2023-05-10T14:49:09;6.43;;;5.83;;
54679;SDS011;40578;53.178;5.846;2023-05-10T14:51:34;6.53;;;5.37;;
54679;SDS011;40578;53.178;5.846;2023-05-10T14:54:01;6.50;;;5.80;;
54679;SDS011;40578;53.178;5.846;2023-05-10T14:56:28;6.50;;;5.68;;
54679;SDS011;40578;53.178;5.846;2023-05-10T14:58:54;6.80;;;6.10;;
54679;SDS011;40578;53.178;5.846;2023-05-10T15:01:20;8.27;;;5.75;;
54679;SDS011;40578;53.178;5.846;2023-05-10T15:03:46;7.03;;;6.07;;
54679;SDS011;40578;53.178;5.846;2023-05-10T15:06:13;6.83;;;6.13;;
54679;SDS011;40578;53.178;5.846;2023-05-10T15:08:40;8.50;;;7.20;;
54679;SDS011;40578;53.178;5.846;2023-05-10T15:11:06;7.93;;;6.87;;
54679;SDS011;40578;53.178;5.846;2023-05-10T15:13:32;8.43;;;7.50;;
54679;SDS011;40578;53.178;5.846;2023-05-10T15:15:57;8.53;;;7.30;;
54679;SDS011;40578;53.178;5.846;2023-05-10T15:18:23;9.13;;;6.93;;
54679;SDS011;40578;53.178;5.846;2023-05-10T15:20:48;8.07;;;7.27;;
54679;SDS011;40578;53.178;5.846;2023-05-10T15:23:14;8.97;;;7.30;;
54679;SDS011;40578;53.178;5.846;2023-05-10T15:25:40;7.67;;;6.70;;
54679;SDS011;40578;53.178;5.846;2023-05-10T15:28:05;8.40;;;6.97;;
54679;SDS011;40578;53.178;5.846;2023-05-10T15:30:31;8.63;;;7.73;;
54679;SDS011;40578;53.178;5.846;2023-05-10T15:32:58;8.73;;;7.83;;
54679;SDS011;40578;53.178;5.846;2023-05-10T15:35:25;8.32;;;7.43;;